createdAt,value
2022-10-06T13:01:27.404Z,50.60
2022-10-06T13:03:55.462Z,49.68
2022-10-06T13:06:24.781Z,47.85
2022-10-06T13:09:14.420Z,50.76
2022-10-06T13:11:41.466Z,48.06
2022-10-06T13:14:13.577Z,49.63
2022-10-06T13:16:46.941Z,49.87
2022-10-06T13:19:17.572Z,51.21
2022-10-06T13:21:45.340Z,49.99
2022-10-06T13:24:24.986Z,50.34
2022-10-06T13:26:53.504Z,50.81
2022-10-06T13:29:25.632Z,50.81
2022-10-06T13:31:54.377Z,50.79
2022-10-06T13:34:30.276Z,49.67
2022-10-06T13:36:59.719Z,48.82
2022-10-06T13:39:32.288Z,48.51
2022-10-06T13:42:03.656Z,47.97
2022-10-06T13:44:57.496Z,49.49
2022-10-06T13:47:29.711Z,49.25
2022-10-06T13:50:02.174Z,49.28
2022-10-06T13:52:38.006Z,48.03
2022-10-06T13:55:25.309Z,48.68
2022-10-06T13:58:18.494Z,52.44
2022-10-06T14:00:48.962Z,49.78
2022-10-06T14:03:26.685Z,51.53
2022-10-06T14:06:22.360Z,53.96
2022-10-06T14:08:54.192Z,52.87
2022-10-06T14:11:25.004Z,53.36
2022-10-06T14:13:59.130Z,52.69
2022-10-06T14:16:27.923Z,53.36
2022-10-06T14:19:00.187Z,52.85
2022-10-06T14:21:49.262Z,53.13
2022-10-06T14:24:16.168Z,52.14
2022-10-06T14:26:45.312Z,51.09
2022-10-06T14:29:16.588Z,51.17
2022-10-06T14:31:44.316Z,50.73
2022-10-06T14:34:17.641Z,52.15
2022-10-06T14:36:55.091Z,53.98
2022-10-06T14:39:22.330Z,53.01
2022-10-06T14:41:50.240Z,52.36
2022-10-06T14:44:17.346Z,53.42
2022-10-06T14:46:49.324Z,52.44
2022-10-06T14:49:16.986Z,51.95
2022-10-06T14:51:44.942Z,51.84
2022-10-06T14:54:12.727Z,52.38
2022-10-06T14:56:40.915Z,52.80
2022-10-06T15:17:25.100Z,55.33
2022-10-06T15:19:52.095Z,56.81
2022-10-06T15:22:19.496Z,57.21
2022-10-06T15:24:50.429Z,57.54
2022-10-06T15:27:36.136Z,58.10
2022-10-06T15:30:03.209Z,56.26
2022-10-06T15:32:30.217Z,58.31
2022-10-06T15:34:57.099Z,57.54
2022-10-06T15:37:24.161Z,56.33
